Tropical Cyclones
[Index]
Main Index Home Page Stock Weather Photos Extreme Storms Discussion Storm News and Storm Chasing Reports Tropical Cyclones / Hurricanes / Typhoons Weather Data and Links Wild Fires / Bushfires Weather Observation Techniques Weather Picture Catalogue Tornado Pictures and Reports Stock Video Footage and DVDs for sale
Season 1962-1963 Tropical Cyclone 196340 Track Map
Season 1962-1963 Summaries: [BoM-AU] [JTWC-AU] [JTWC-SIO] [JTWC-SPAC] [JTWC-SH]
<<- Previous TC | JTWC 1962-1963 Season | Next TC ->>

click for intensity scale information  Lat/long Grid: Show Hide

 Date Labels: Show Hide

Joint Typhoon Warning Centre Cyclone Data

Name: 196340
Number: 487 / 6340

14 Mar 1963 18:00 UTC to 23 Mar 1963 12:00 UTC

    date/time    lat    long     hPa   cat  kts
1963-03-14 18   10.0   101.0                  10          
1963-03-15 00   10.0   101.0                  10          
1963-03-15 06   10.2   100.8                  10          
1963-03-15 12   10.5   100.6                  10          
1963-03-15 18   10.8   100.3                  10          
1963-03-16 00   11.0   100.0                  30          
1963-03-16 06   11.3    99.7            1     40          
1963-03-16 12   11.9    99.1                  20          
1963-03-16 18   12.4    98.5                  15          
1963-03-17 00   12.8    98.1                  20          
1963-03-17 06   13.2    97.6                  20          
1963-03-17 12   13.5    97.1                  15          
1963-03-17 18   13.8    96.5                  15          
1963-03-18 00   14.1    96.0                  10          
1963-03-18 06   14.4    95.4                  10          
1963-03-18 12   15.2    94.5                  10          
1963-03-18 18   16.0    93.8                  20          
1963-03-19 00   16.7    93.2                  30          
1963-03-19 06   17.4    92.8            1     40          
1963-03-19 12   18.0    92.6            1     45          
1963-03-19 18   18.5    92.3            1     45          
1963-03-20 00   18.9    92.1            1     40          
1963-03-20 06   19.2    92.0                  35          
1963-03-20 12   19.5    92.0                  35          
1963-03-20 18   19.8    92.0                  35          
1963-03-21 00   20.0    92.0                  30          
1963-03-21 06   20.3    92.2                  30          
1963-03-21 12   20.9    92.5                  20          
1963-03-21 18   21.4    92.8                  15          
1963-03-22 00   21.8    93.2                  15          
1963-03-22 06   22.2    93.9                              
1963-03-22 12   22.5    95.3                              
1963-03-22 18   22.8    96.6                              
1963-03-23 00   22.9    97.5                              
1963-03-23 06   23.0    98.2                              
1963-03-23 12   23.0    98.2                              
Winds are 1-min average.

Tropical cyclone tracks developed by Michael Bath using data from the Joint Typhoon Warning Centre Best Tracks and Google Maps.


[Australian Severe Weather index] [Copyright Notice] [Email Contacts] [Search This Site] [Privacy Policy]
Document: tropical_cyclone_196340.htm Updated: 18 September 2016